Airfield :
LOGIN :

Register | Disclaimer

   EN    FR    IT 

 










Legend :    VFR   Marginal VFR   IFR   Intensive IFR   Very Intensive IFR
Visi :
Ceiling :
>= 8 km
>= 3000ft
5 to 8 km
1000 to 3000 ft
1500m to 5 km
500 to 1000 ft
800 to 1500m
200 to 500 ft
< 800m
< 200 ft
Symbols :   Thunderstorms  Fog  Heavy snow  Heavy precipitations  Wind > 20 kt
SIGMETs :     Misc.  Thunderstorms  Icing  Turbulence  Mountain Waves  Volcanic Ashes






- Airport Elevation : 286 ft
- IATA code : FFD


EGVA - RAF Fairford

METAR N/A
TAF AMD TAF EGVA
Valid from the 26 at 08:00 until the 27 at 11:00 UTC


260855Z 2608/2711 20006KT 9999 FEW025 BKN030 620309 QNH3000INS
BECMG 2609/2610 18010G15KT 9999 -RA SCT008 OVC015 620209 QNH2996INS
BECMG 2611/2612 21010G18KT 8000 -RA OVC007 QNH2983INS
TEMPO 2614/2618 19015G25KT OVC005
BECMG 2617/2618 20010G18KT 8000 -DZ OVC007 QNH2982INS
BECMG 2620/2621 22009KT 5000 BR SCT007 OVC020 QNH2982INS
BECMG 2703/2704 26006KT 3200 BR SCT007 OVC020 QNH2984INS TX07/2703Z TN00/2608Z LAST NO AMDS AFT 2608 NEXT 2615



MET'MAP, your aeronautical weather chart ! - Copyright ORBIFLY December 2007 - Disclaimer

ORBIFLY MET'MAP TEAM :

Programming & Development : Alexandra Zaïnal
Concept & original design : Baudouin d'Aumeries
Assistance for programming : Marc-Olivier Méhu
Technical & hardware support : Manuel Goepfert

Contact : metmap@orbifly.com




SOURCES & CREDITS :

   NOAA